sensor_id;sensor_type;location;lat;lon;timestamp;pressure;altitude;pressure_sealevel;temperature;humidity
46023;BME280;31756;47.936;16.224;2023-02-12T00:02:06;100139.28;;;5.23;100.00
46023;BME280;31756;47.936;16.224;2023-02-12T00:04:32;100144.34;;;5.23;100.00
46023;BME280;31756;47.936;16.224;2023-02-12T00:06:57;100145.47;;;5.33;100.00
46023;BME280;31756;47.936;16.224;2023-02-12T00:09:23;100132.94;;;5.40;100.00
46023;BME280;31756;47.936;16.224;2023-02-12T00:11:49;100144.72;;;5.37;100.00
46023;BME280;31756;47.936;16.224;2023-02-12T00:14:14;100142.84;;;5.30;100.00
46023;BME280;31756;47.936;16.224;2023-02-12T00:16:39;100138.50;;;5.26;100.00
46023;BME280;31756;47.936;16.224;2023-02-12T00:19:05;100145.16;;;5.22;100.00
46023;BME280;31756;47.936;16.224;2023-02-12T00:21:30;100145.34;;;5.28;100.00
46023;BME280;31756;47.936;16.224;2023-02-12T00:23:56;100145.22;;;5.24;100.00
46023;BME280;31756;47.936;16.224;2023-02-12T00:26:22;100146.13;;;5.26;100.00
46023;BME280;31756;47.936;16.224;2023-02-12T00:28:49;100158.75;;;5.23;100.00
46023;BME280;31756;47.936;16.224;2023-02-12T00:31:20;100154.53;;;5.23;100.00
46023;BME280;31756;47.936;16.224;2023-02-12T00:33:49;100175.94;;;5.31;100.00
46023;BME280;31756;47.936;16.224;2023-02-12T00:36:19;100160.78;;;5.34;100.00
46023;BME280;31756;47.936;16.224;2023-02-12T00:38:45;100158.97;;;5.30;100.00
46023;BME280;31756;47.936;16.224;2023-02-12T00:41:11;100168.28;;;5.30;100.00
46023;BME280;31756;47.936;16.224;2023-02-12T00:43:36;100166.63;;;5.32;100.00
46023;BME280;31756;47.936;16.224;2023-02-12T00:46:02;100165.81;;;5.33;100.00
46023;BME280;31756;47.936;16.224;2023-02-12T00:48:29;100170.97;;;5.36;100.00
46023;BME280;31756;47.936;16.224;2023-02-12T00:50:55;100155.78;;;5.39;100.00
46023;BME280;31756;47.936;16.224;2023-02-12T00:53:20;100155.00;;;5.41;100.00
46023;BME280;31756;47.936;16.224;2023-02-12T00:55:45;100158.31;;;5.39;100.00
46023;BME280;31756;47.936;16.224;2023-02-12T00:58:11;100160.84;;;5.37;100.00
46023;BME280;31756;47.936;16.224;2023-02-12T01:00:36;100153.97;;;5.33;100.00
46023;BME280;31756;47.936;16.224;2023-02-12T01:03:02;100163.94;;;5.27;100.00
46023;BME280;31756;47.936;16.224;2023-02-12T01:05:31;100160.53;;;5.25;100.00
46023;BME280;31756;47.936;16.224;2023-02-12T01:07:57;100151.25;;;5.27;100.00
46023;BME280;31756;47.936;16.224;2023-02-12T01:10:22;100148.56;;;5.23;100.00
46023;BME280;31756;47.936;16.224;2023-02-12T01:12:48;100158.78;;;5.24;100.00
46023;BME280;31756;47.936;16.224;2023-02-12T01:15:14;100147.84;;;5.27;100.00
46023;BME280;31756;47.936;16.224;2023-02-12T01:17:40;100152.03;;;5.25;100.00
46023;BME280;31756;47.936;16.224;2023-02-12T01:20:06;100165.56;;;5.24;100.00
46023;BME280;31756;47.936;16.224;2023-02-12T01:22:34;100163.94;;;5.26;100.00
46023;BME280;31756;47.936;16.224;2023-02-12T01:25:01;100169.91;;;5.28;100.00
46023;BME280;31756;47.936;16.224;2023-02-12T01:27:26;100174.88;;;5.23;100.00
46023;BME280;31756;47.936;16.224;2023-02-12T01:29:54;100193.47;;;5.22;100.00
46023;BME280;31756;47.936;16.224;2023-02-12T01:32:19;100191.09;;;5.28;100.00
46023;BME280;31756;47.936;16.224;2023-02-12T01:34:45;100196.84;;;5.21;100.00
46023;BME280;31756;47.936;16.224;2023-02-12T01:37:10;100194.44;;;5.26;100.00
46023;BME280;31756;47.936;16.224;2023-02-12T01:39:36;100192.09;;;5.33;100.00
46023;BME280;31756;47.936;16.224;2023-02-12T01:42:02;100191.06;;;5.27;100.00
46023;BME280;31756;47.936;16.224;2023-02-12T01:44:28;100201.97;;;5.23;100.00
46023;BME280;31756;47.936;16.224;2023-02-12T01:46:55;100207.84;;;5.20;100.00
46023;BME280;31756;47.936;16.224;2023-02-12T01:51:46;100223.47;;;5.34;100.00
46023;BME280;31756;47.936;16.224;2023-02-12T01:54:13;100233.78;;;5.38;100.00
46023;BME280;31756;47.936;16.224;2023-02-12T01:56:39;100242.97;;;5.35;100.00
46023;BME280;31756;47.936;16.224;2023-02-12T01:59:05;100236.19;;;5.34;100.00
46023;BME280;31756;47.936;16.224;2023-02-12T02:01:31;100231.25;;;5.40;100.00
46023;BME280;31756;47.936;16.224;2023-02-12T02:04:00;100222.13;;;5.46;100.00
46023;BME280;31756;47.936;16.224;2023-02-12T02:06:39;100228.75;;;5.41;100.00
46023;BME280;31756;47.936;16.224;2023-02-12T02:09:06;100240.53;;;5.38;100.00
46023;BME280;31756;47.936;16.224;2023-02-12T02:11:31;100240.53;;;5.38;100.00
46023;BME280;31756;47.936;16.224;2023-02-12T02:14:15;100224.41;;;5.37;100.00
46023;BME280;31756;47.936;16.224;2023-02-12T02:20:00;100229.56;;;5.40;100.00
46023;BME280;31756;47.936;16.224;2023-02-12T02:27:29;100228.59;;;5.35;100.00
46023;BME280;31756;47.936;16.224;2023-02-12T02:32:37;100204.00;;;5.34;100.00
46023;BME280;31756;47.936;16.224;2023-02-12T02:37:36;100220.81;;;5.31;100.00
46023;BME280;31756;47.936;16.224;2023-02-12T02:42:51;100227.38;;;5.21;100.00
46023;BME280;31756;47.936;16.224;2023-02-12T02:45:20;100225.50;;;5.16;100.00
46023;BME280;31756;47.936;16.224;2023-02-12T02:47:57;100225.63;;;5.20;100.00
46023;BME280;31756;47.936;16.224;2023-02-12T02:50:24;100223.78;;;5.15;100.00
46023;BME280;31756;47.936;16.224;2023-02-12T02:52:56;100233.00;;;5.11;100.00
46023;BME280;31756;47.936;16.224;2023-02-12T02:55:24;100228.72;;;5.10;100.00
46023;BME280;31756;47.936;16.224;2023-02-12T03:00:17;100239.13;;;5.18;100.00
46023;BME280;31756;47.936;16.224;2023-02-12T03:02:52;100246.78;;;5.19;100.00
46023;BME280;31756;47.936;16.224;2023-02-12T03:05:21;100252.44;;;5.09;100.00
46023;BME280;31756;47.936;16.224;2023-02-12T03:07:51;100262.63;;;5.11;100.00
46023;BME280;31756;47.936;16.224;2023-02-12T03:10:17;100265.16;;;5.09;100.00
46023;BME280;31756;47.936;16.224;2023-02-12T03:12:52;100263.38;;;5.06;100.00
46023;BME280;31756;47.936;16.224;2023-02-12T03:15:20;100269.19;;;5.02;100.00
46023;BME280;31756;47.936;16.224;2023-02-12T03:17:48;100269.84;;;4.97;100.00
46023;BME280;31756;47.936;16.224;2023-02-12T03:20:19;100273.13;;;4.93;100.00
46023;BME280;31756;47.936;16.224;2023-02-12T03:22:47;100267.94;;;4.90;100.00
46023;BME280;31756;47.936;16.224;2023-02-12T03:25:17;100268.59;;;4.83;100.00
46023;BME280;31756;47.936;16.224;2023-02-12T03:30:13;100290.09;;;4.66;100.00
46023;BME280;31756;47.936;16.224;2023-02-12T03:32:49;100290.69;;;4.58;100.00
46023;BME280;31756;47.936;16.224;2023-02-12T03:35:23;100291.38;;;4.53;100.00
46023;BME280;31756;47.936;16.224;2023-02-12T03:37:57;100305.66;;;4.49;100.00
46023;BME280;31756;47.936;16.224;2023-02-12T03:46:14;100297.88;;;4.45;100.00
46023;BME280;31756;47.936;16.224;2023-02-12T03:48:32;100303.78;;;4.44;100.00
46023;BME280;31756;47.936;16.224;2023-02-12T03:51:16;100297.69;;;4.39;100.00
46023;BME280;31756;47.936;16.224;2023-02-12T03:53:44;100304.44;;;4.38;100.00
46023;BME280;31756;47.936;16.224;2023-02-12T03:56:12;100304.41;;;4.37;100.00
46023;BME280;31756;47.936;16.224;2023-02-12T03:58:40;100298.31;;;4.32;100.00
46023;BME280;31756;47.936;16.224;2023-02-12T04:01:07;100308.69;;;4.39;100.00
46023;BME280;31756;47.936;16.224;2023-02-12T04:03:33;100306.88;;;4.35;100.00
46023;BME280;31756;47.936;16.224;2023-02-12T04:05:58;100311.88;;;4.32;100.00
46023;BME280;31756;47.936;16.224;2023-02-12T04:08:24;100311.75;;;4.29;100.00
46023;BME280;31756;47.936;16.224;2023-02-12T04:16:17;100318.38;;;4.24;100.00
46023;BME280;31756;47.936;16.224;2023-02-12T04:18:47;100327.50;;;4.19;100.00
46023;BME280;31756;47.936;16.224;2023-02-12T04:29:27;100336.97;;;4.25;100.00
46023;BME280;31756;47.936;16.224;2023-02-12T04:37:02;100337.81;;;4.24;100.00
46023;BME280;31756;47.936;16.224;2023-02-12T04:39:29;100337.03;;;4.26;100.00
46023;BME280;31756;47.936;16.224;2023-02-12T04:41:58;100350.44;;;4.22;100.00
46023;BME280;31756;47.936;16.224;2023-02-12T04:44:25;100352.00;;;4.19;100.00
46023;BME280;31756;47.936;16.224;2023-02-12T04:46:51;100365.56;;;4.19;100.00
46023;BME280;31756;47.936;16.224;2023-02-12T04:49:18;100367.06;;;4.14;100.00
46023;BME280;31756;47.936;16.224;2023-02-12T04:51:44;100374.59;;;4.11;100.00
46023;BME280;31756;47.936;16.224;2023-02-12T04:54:10;100370.31;;;4.10;100.00
46023;BME280;31756;47.936;16.224;2023-02-12T04:56:36;100378.03;;;4.13;100.00
46023;BME280;31756;47.936;16.224;2023-02-12T04:59:02;100383.91;;;4.12;100.00
46023;BME280;31756;47.936;16.224;2023-02-12T05:01:28;100389.16;;;4.17;100.00
46023;BME280;31756;47.936;16.224;2023-02-12T05:03:53;100389.22;;;4.18;100.00
46023;BME280;31756;47.936;16.224;2023-02-12T05:06:19;100398.50;;;4.18;100.00
46023;BME280;31756;47.936;16.224;2023-02-12T05:08:44;100399.47;;;4.21;100.00
46023;BME280;31756;47.936;16.224;2023-02-12T05:11:10;100410.38;;;4.19;100.00
46023;BME280;31756;47.936;16.224;2023-02-12T05:13:35;100407.16;;;4.23;100.00
46023;BME280;31756;47.936;16.224;2023-02-12T05:16:04;100407.31;;;4.27;100.00
46023;BME280;31756;47.936;16.224;2023-02-12T05:18:31;100416.53;;;4.25;100.00
46023;BME280;31756;47.936;16.224;2023-02-12T05:20:57;100409.88;;;4.29;100.00
46023;BME280;31756;47.936;16.224;2023-02-12T05:23:24;100419.34;;;4.33;100.00
46023;BME280;31756;47.936;16.224;2023-02-12T05:25:50;100423.44;;;4.29;100.00
46023;BME280;31756;47.936;16.224;2023-02-12T05:28:15;100426.97;;;4.33;100.00
46023;BME280;31756;47.936;16.224;2023-02-12T05:30:41;100421.06;;;4.34;100.00
46023;BME280;31756;47.936;16.224;2023-02-12T05:33:06;100423.75;;;4.38;100.00
46023;BME280;31756;47.936;16.224;2023-02-12T05:35:33;100423.75;;;4.38;100.00
46023;BME280;31756;47.936;16.224;2023-02-12T05:37:58;100422.97;;;4.39;100.00
46023;BME280;31756;47.936;16.224;2023-02-12T05:40:24;100434.84;;;4.40;100.00
46023;BME280;31756;47.936;16.224;2023-02-12T05:42:52;100439.97;;;4.42;100.00
46023;BME280;31756;47.936;16.224;2023-02-12T05:45:18;100435.03;;;4.46;100.00
46023;BME280;31756;47.936;16.224;2023-02-12T05:47:43;100437.53;;;4.45;100.00
46023;BME280;31756;47.936;16.224;2023-02-12T05:50:09;100443.50;;;4.45;100.00
46023;BME280;31756;47.936;16.224;2023-02-12T05:52:34;100442.78;;;4.49;100.00
46023;BME280;31756;47.936;16.224;2023-02-12T05:54:59;100455.31;;;4.45;100.00
46023;BME280;31756;47.936;16.224;2023-02-12T05:57:25;100454.72;;;4.52;100.00
46023;BME280;31756;47.936;16.224;2023-02-12T05:59:50;100447.91;;;4.51;100.00
46023;BME280;31756;47.936;16.224;2023-02-12T06:02:16;100451.16;;;4.47;100.00
46023;BME280;31756;47.936;16.224;2023-02-12T06:04:41;100455.47;;;4.49;100.00
46023;BME280;31756;47.936;16.224;2023-02-12T06:07:07;100458.84;;;4.50;100.00
46023;BME280;31756;47.936;16.224;2023-02-12T06:09:33;100460.41;;;4.45;100.00
46023;BME280;31756;47.936;16.224;2023-02-12T06:11:59;100462.97;;;4.46;100.00
46023;BME280;31756;47.936;16.224;2023-02-12T06:14:24;100458.81;;;4.48;100.00
46023;BME280;31756;47.936;16.224;2023-02-12T06:16:50;100466.47;;;4.50;100.00
46023;BME280;31756;47.936;16.224;2023-02-12T06:19:15;100477.34;;;4.46;100.00
46023;BME280;31756;47.936;16.224;2023-02-12T06:21:41;100485.13;;;4.50;100.00
46023;BME280;31756;47.936;16.224;2023-02-12T06:24:06;100483.44;;;4.51;100.00
46023;BME280;31756;47.936;16.224;2023-02-12T06:26:32;100472.56;;;4.53;100.00
46023;BME280;31756;47.936;16.224;2023-02-12T06:28:58;100486.13;;;4.54;100.00
46023;BME280;31756;47.936;16.224;2023-02-12T06:31:28;100492.03;;;4.54;100.00
46023;BME280;31756;47.936;16.224;2023-02-12T06:33:54;100500.41;;;4.52;100.00
46023;BME280;31756;47.936;16.224;2023-02-12T06:36:20;100490.34;;;4.53;100.00
46023;BME280;31756;47.936;16.224;2023-02-12T06:38:46;100483.72;;;4.58;100.00
46023;BME280;31756;47.936;16.224;2023-02-12T06:41:15;100477.97;;;4.64;100.00
46023;BME280;31756;47.936;16.224;2023-02-12T06:43:41;100486.41;;;4.63;100.00
46023;BME280;31756;47.936;16.224;2023-02-12T06:46:06;100489.78;;;4.62;100.00
46023;BME280;31756;47.936;16.224;2023-02-12T06:48:32;100493.53;;;4.73;100.00
46023;BME280;31756;47.936;16.224;2023-02-12T06:51:09;100492.69;;;4.73;100.00
46023;BME280;31756;47.936;16.224;2023-02-12T06:53:35;100495.47;;;4.80;100.00
46023;BME280;31756;47.936;16.224;2023-02-12T06:56:02;100500.56;;;4.80;100.00
46023;BME280;31756;47.936;16.224;2023-02-12T06:58:27;100512.38;;;4.80;100.00
46023;BME280;31756;47.936;16.224;2023-02-12T07:00:53;100514.19;;;4.82;100.00
46023;BME280;31756;47.936;16.224;2023-02-12T07:03:21;100506.59;;;4.84;100.00
46023;BME280;31756;47.936;16.224;2023-02-12T07:05:50;100512.53;;;4.84;100.00
46023;BME280;31756;47.936;16.224;2023-02-12T07:08:15;100516.72;;;4.82;100.00
46023;BME280;31756;47.936;16.224;2023-02-12T07:10:41;100516.97;;;4.90;100.00
46023;BME280;31756;47.936;16.224;2023-02-12T07:13:06;100514.53;;;4.93;100.00
46023;BME280;31756;47.936;16.224;2023-02-12T07:15:32;100507.03;;;4.96;100.00
46023;BME280;31756;47.936;16.224;2023-02-12T07:17:57;100521.41;;;4.95;100.00
46023;BME280;31756;47.936;16.224;2023-02-12T07:20:23;100510.56;;;5.01;100.00
46023;BME280;31756;47.936;16.224;2023-02-12T07:22:48;100521.97;;;5.12;100.00
46023;BME280;31756;47.936;16.224;2023-02-12T07:25:13;100517.78;;;5.14;100.00
46023;BME280;31756;47.936;16.224;2023-02-12T07:27:39;100508.63;;;5.18;100.00
46023;BME280;31756;47.936;16.224;2023-02-12T07:30:05;100511.84;;;5.14;100.00
46023;BME280;31756;47.936;16.224;2023-02-12T07:32:32;100517.03;;;5.17;100.00
46023;BME280;31756;47.936;16.224;2023-02-12T07:34:58;100508.69;;;5.21;100.00
46023;BME280;31756;47.936;16.224;2023-02-12T07:37:23;100512.19;;;5.24;100.00
46023;BME280;31756;47.936;16.224;2023-02-12T07:39:49;100503.91;;;5.30;100.00
46023;BME280;31756;47.936;16.224;2023-02-12T07:42:15;100509.91;;;5.32;100.00
46023;BME280;31756;47.936;16.224;2023-02-12T07:44:47;100517.69;;;5.36;100.00
46023;BME280;31756;47.936;16.224;2023-02-12T07:47:12;100519.50;;;5.40;100.00
46023;BME280;31756;47.936;16.224;2023-02-12T07:49:39;100521.56;;;5.52;100.00
46023;BME280;31756;47.936;16.224;2023-02-12T07:52:05;100520.75;;;5.53;100.00
46023;BME280;31756;47.936;16.224;2023-02-12T07:54:30;100521.78;;;5.58;100.00
46023;BME280;31756;47.936;16.224;2023-02-12T07:56:56;100531.28;;;5.64;100.00
46023;BME280;31756;47.936;16.224;2023-02-12T07:59:22;100534.56;;;5.60;100.00
46023;BME280;31756;47.936;16.224;2023-02-12T08:01:48;100539.56;;;5.58;100.00
46023;BME280;31756;47.936;16.224;2023-02-12T08:04:16;100537.59;;;5.49;100.00
46023;BME280;31756;47.936;16.224;2023-02-12T08:06:42;100538.66;;;5.56;100.00
46023;BME280;31756;47.936;16.224;2023-02-12T08:09:09;100538.06;;;5.65;100.00
46023;BME280;31756;47.936;16.224;2023-02-12T08:11:36;100542.19;;;5.60;100.00
46023;BME280;31756;47.936;16.224;2023-02-12T08:14:02;100534.41;;;5.55;100.00
46023;BME280;31756;47.936;16.224;2023-02-12T08:16:28;100539.44;;;5.53;100.00
46023;BME280;31756;47.936;16.224;2023-02-12T08:18:54;100554.91;;;5.60;100.00
46023;BME280;31756;47.936;16.224;2023-02-12T08:21:20;100538.91;;;5.64;100.00
46023;BME280;31756;47.936;16.224;2023-02-12T08:23:46;100531.31;;;5.65;100.00
46023;BME280;31756;47.936;16.224;2023-02-12T08:26:16;100530.69;;;5.72;100.00
46023;BME280;31756;47.936;16.224;2023-02-12T08:28:49;100537.47;;;5.72;100.00
46023;BME280;31756;47.936;16.224;2023-02-12T08:31:20;100539.50;;;5.83;100.00
46023;BME280;31756;47.936;16.224;2023-02-12T08:33:46;100525.31;;;5.90;100.00
46023;BME280;31756;47.936;16.224;2023-02-12T08:36:13;100536.41;;;5.92;100.00
46023;BME280;31756;47.936;16.224;2023-02-12T08:38:39;100542.13;;;5.85;100.00
46023;BME280;31756;47.936;16.224;2023-02-12T08:41:09;100527.66;;;5.84;100.00
46023;BME280;31756;47.936;16.224;2023-02-12T08:43:35;100538.56;;;5.80;100.00
46023;BME280;31756;47.936;16.224;2023-02-12T08:46:06;100549.63;;;5.80;100.00
46023;BME280;31756;47.936;16.224;2023-02-12T08:48:31;100541.03;;;5.77;100.00
46023;BME280;31756;47.936;16.224;2023-02-12T08:53:50;100549.66;;;5.55;100.00
46023;BME280;31756;47.936;16.224;2023-02-12T08:56:16;100546.63;;;5.67;100.00
46023;BME280;31756;47.936;16.224;2023-02-12T08:58:42;100556.56;;;5.86;100.00
46023;BME280;31756;47.936;16.224;2023-02-12T09:01:12;100566.44;;;6.02;100.00
46023;BME280;31756;47.936;16.224;2023-02-12T09:03:37;100564.41;;;6.19;100.00
46023;BME280;31756;47.936;16.224;2023-02-12T09:06:04;100573.88;;;6.24;100.00
46023;BME280;31756;47.936;16.224;2023-02-12T09:08:29;100573.16;;;6.28;100.00
46023;BME280;31756;47.936;16.224;2023-02-12T09:10:55;100579.84;;;6.25;100.00
46023;BME280;31756;47.936;16.224;2023-02-12T09:13:20;100588.13;;;6.18;100.00
46023;BME280;31756;47.936;16.224;2023-02-12T09:15:46;100582.25;;;6.20;100.00
46023;BME280;31756;47.936;16.224;2023-02-12T09:18:12;100590.53;;;6.13;100.00
46023;BME280;31756;47.936;16.224;2023-02-12T09:20:38;100609.44;;;6.21;100.00
46023;BME280;31756;47.936;16.224;2023-02-12T09:23:05;100596.84;;;6.26;100.00
46023;BME280;31756;47.936;16.224;2023-02-12T09:25:31;100602.91;;;6.29;100.00
46023;BME280;31756;47.936;16.224;2023-02-12T09:27:59;100608.00;;;6.29;100.00
46023;BME280;31756;47.936;16.224;2023-02-12T09:30:25;100612.16;;;6.56;100.00
46023;BME280;31756;47.936;16.224;2023-02-12T09:32:50;100604.25;;;6.47;100.00
46023;BME280;31756;47.936;16.224;2023-02-12T09:35:15;100617.06;;;6.50;100.00
46023;BME280;31756;47.936;16.224;2023-02-12T09:37:42;100610.16;;;6.46;100.00
46023;BME280;31756;47.936;16.224;2023-02-12T09:40:09;100602.63;;;6.49;100.00
46023;BME280;31756;47.936;16.224;2023-02-12T09:45:48;100604.78;;;6.65;100.00
46023;BME280;31756;47.936;16.224;2023-02-12T09:48:37;100629.47;;;6.66;100.00
46023;BME280;31756;47.936;16.224;2023-02-12T09:51:06;100627.50;;;6.57;100.00
46023;BME280;31756;47.936;16.224;2023-02-12T09:53:34;100618.28;;;6.61;100.00
46023;BME280;31756;47.936;16.224;2023-02-12T09:56:00;100622.06;;;6.75;100.00
46023;BME280;31756;47.936;16.224;2023-02-12T09:58:30;100633.78;;;6.98;100.00
46023;BME280;31756;47.936;16.224;2023-02-12T10:00:57;100625.00;;;7.20;100.00
46023;BME280;31756;47.936;16.224;2023-02-12T10:03:22;100620.03;;;7.24;100.00
46023;BME280;31756;47.936;16.224;2023-02-12T10:05:50;100622.72;;;7.29;100.00
46023;BME280;31756;47.936;16.224;2023-02-12T10:16:13;100623.75;;;7.70;100.00
46023;BME280;31756;47.936;16.224;2023-02-12T10:26:43;100631.38;;;8.04;100.00
46023;BME280;31756;47.936;16.224;2023-02-12T10:29:16;100631.88;;;8.25;100.00
46023;BME280;31756;47.936;16.224;2023-02-12T10:31:52;100636.56;;;8.07;100.00
46023;BME280;31756;47.936;16.224;2023-02-12T10:34:20;100616.13;;;8.07;100.00
46023;BME280;31756;47.936;16.224;2023-02-12T10:36:50;100620.81;;;7.89;100.00
46023;BME280;31756;47.936;16.224;2023-02-12T10:39:21;100614.97;;;7.59;100.00
46023;BME280;31756;47.936;16.224;2023-02-12T10:41:50;100620.19;;;7.65;100.00
46023;BME280;31756;47.936;16.224;2023-02-12T10:44:17;100621.00;;;7.98;100.00
46023;BME280;31756;47.936;16.224;2023-02-12T10:46:42;100620.63;;;8.17;100.00
46023;BME280;31756;47.936;16.224;2023-02-12T10:49:09;100619.03;;;8.24;100.00
46023;BME280;31756;47.936;16.224;2023-02-12T10:54:34;100611.72;;;8.00;100.00
46023;BME280;31756;47.936;16.224;2023-02-12T10:57:05;100617.13;;;8.14;100.00
46023;BME280;31756;47.936;16.224;2023-02-12T10:59:31;100621.44;;;8.16;100.00
46023;BME280;31756;47.936;16.224;2023-02-12T11:01:57;100625.22;;;8.32;100.00
46023;BME280;31756;47.936;16.224;2023-02-12T11:09:42;100612.66;;;8.41;100.00
46023;BME280;31756;47.936;16.224;2023-02-12T11:12:16;100627.00;;;8.36;100.00
46023;BME280;31756;47.936;16.224;2023-02-12T11:14:53;100618.50;;;8.36;100.00
46023;BME280;31756;47.936;16.224;2023-02-12T11:17:26;100613.41;;;8.36;100.00
46023;BME280;31756;47.936;16.224;2023-02-12T11:22:28;100611.19;;;8.52;100.00
46023;BME280;31756;47.936;16.224;2023-02-12T11:24:59;100607.97;;;8.61;100.00
46023;BME280;31756;47.936;16.224;2023-02-12T11:27:25;100618.34;;;8.68;100.00
46023;BME280;31756;47.936;16.224;2023-02-12T11:32:37;100617.41;;;8.26;100.00
46023;BME280;31756;47.936;16.224;2023-02-12T11:35:13;100615.19;;;8.41;100.00
46023;BME280;31756;47.936;16.224;2023-02-12T11:37:39;100617.34;;;8.24;100.00
46023;BME280;31756;47.936;16.224;2023-02-12T11:40:12;100623.28;;;8.22;100.00
46023;BME280;31756;47.936;16.224;2023-02-12T11:42:40;100618.94;;;8.19;100.00
46023;BME280;31756;47.936;16.224;2023-02-12T11:45:14;100617.69;;;8.01;100.00
46023;BME280;31756;47.936;16.224;2023-02-12T11:47:41;100620.88;;;7.92;100.00
46023;BME280;31756;47.936;16.224;2023-02-12T11:52:52;100626.22;;;7.67;100.00
46023;BME280;31756;47.936;16.224;2023-02-12T11:55:23;100625.41;;;7.68;100.00
46023;BME280;31756;47.936;16.224;2023-02-12T11:57:51;100618.88;;;7.79;100.00
46023;BME280;31756;47.936;16.224;2023-02-12T12:05:20;100626.34;;;7.71;100.00
46023;BME280;31756;47.936;16.224;2023-02-12T12:07:49;100629.81;;;7.75;100.00
46023;BME280;31756;47.936;16.224;2023-02-12T12:10:19;100625.06;;;7.56;100.00
46023;BME280;31756;47.936;16.224;2023-02-12T12:12:50;100622.19;;;7.42;100.00
46023;BME280;31756;47.936;16.224;2023-02-12T12:15:22;100630.94;;;7.52;100.00
46023;BME280;31756;47.936;16.224;2023-02-12T12:24:13;100624.19;;;7.54;100.00
46023;BME280;31756;47.936;16.224;2023-02-12T12:26:41;100613.31;;;7.61;100.00
46023;BME280;31756;47.936;16.224;2023-02-12T12:29:16;100604.81;;;7.62;100.00
46023;BME280;31756;47.936;16.224;2023-02-12T12:31:48;100610.00;;;7.65;100.00
46023;BME280;31756;47.936;16.224;2023-02-12T12:34:16;100609.34;;;7.72;100.00
46023;BME280;31756;47.936;16.224;2023-02-12T12:47:15;100599.72;;;7.62;100.00
46023;BME280;31756;47.936;16.224;2023-02-12T12:55:15;100599.31;;;7.81;100.00
46023;BME280;31756;47.936;16.224;2023-02-12T13:08:11;100593.00;;;7.65;100.00
46023;BME280;31756;47.936;16.224;2023-02-12T13:18:23;100587.81;;;7.62;100.00
46023;BME280;31756;47.936;16.224;2023-02-12T13:23:36;100587.41;;;7.81;100.00
46023;BME280;31756;47.936;16.224;2023-02-12T13:28:50;100580.63;;;7.82;100.00
46023;BME280;31756;47.936;16.224;2023-02-12T13:31:18;100582.47;;;7.88;100.00
46023;BME280;31756;47.936;16.224;2023-02-12T13:33:46;100580.69;;;7.84;100.00
46023;BME280;31756;47.936;16.224;2023-02-12T13:36:13;100594.31;;;7.86;100.00
46023;BME280;31756;47.936;16.224;2023-02-12T13:38:41;100586.56;;;7.81;100.00
46023;BME280;31756;47.936;16.224;2023-02-12T13:41:10;100577.09;;;7.75;100.00
46023;BME280;31756;47.936;16.224;2023-02-12T13:43:42;100569.25;;;7.68;100.00
46023;BME280;31756;47.936;16.224;2023-02-12T13:51:45;100580.63;;;7.48;100.00
46023;BME280;31756;47.936;16.224;2023-02-12T13:54:16;100580.41;;;7.39;100.00
46023;BME280;31756;47.936;16.224;2023-02-12T13:56:47;100581.84;;;7.27;100.00
46023;BME280;31756;47.936;16.224;2023-02-12T14:01:56;100572.63;;;7.32;100.00
46023;BME280;31756;47.936;16.224;2023-02-12T14:04:30;100576.16;;;7.38;100.00
46023;BME280;31756;47.936;16.224;2023-02-12T14:06:58;100576.09;;;7.36;100.00
46023;BME280;31756;47.936;16.224;2023-02-12T14:09:29;100578.72;;;7.38;100.00
46023;BME280;31756;47.936;16.224;2023-02-12T14:11:56;100577.97;;;7.43;100.00
46023;BME280;31756;47.936;16.224;2023-02-12T14:14:23;100578.44;;;7.61;100.00
46023;BME280;31756;47.936;16.224;2023-02-12T14:16:50;100586.03;;;7.58;100.00
46023;BME280;31756;47.936;16.224;2023-02-12T14:22:01;100583.91;;;7.76;100.00
46023;BME280;31756;47.936;16.224;2023-02-12T14:27:03;100585.78;;;7.84;100.00
46023;BME280;31756;47.936;16.224;2023-02-12T14:29:30;100576.44;;;7.84;100.00
46023;BME280;31756;47.936;16.224;2023-02-12T14:31:56;100577.31;;;7.86;100.00
46023;BME280;31756;47.936;16.224;2023-02-12T14:36:48;100579.66;;;7.77;100.00
46023;BME280;31756;47.936;16.224;2023-02-12T14:39:33;100585.84;;;7.87;100.00
46023;BME280;31756;47.936;16.224;2023-02-12T14:45:39;100584.19;;;7.89;100.00
46023;BME280;31756;47.936;16.224;2023-02-12T14:50:14;100592.47;;;7.78;100.00
46023;BME280;31756;47.936;16.224;2023-02-12T14:52:42;100589.72;;;7.71;100.00
46023;BME280;31756;47.936;16.224;2023-02-12T14:55:17;100599.72;;;7.62;100.00
46023;BME280;31756;47.936;16.224;2023-02-12T14:57:44;100603.91;;;7.60;100.00
46023;BME280;31756;47.936;16.224;2023-02-12T15:02:44;100600.13;;;7.44;100.00
46023;BME280;31756;47.936;16.224;2023-02-12T15:05:17;100598.38;;;7.42;100.00
46023;BME280;31756;47.936;16.224;2023-02-12T15:07:45;100596.63;;;7.41;100.00
46023;BME280;31756;47.936;16.224;2023-02-12T15:10:21;100601.75;;;7.41;100.00
46023;BME280;31756;47.936;16.224;2023-02-12T15:15:48;100609.31;;;7.38;100.00
46023;BME280;31756;47.936;16.224;2023-02-12T15:18:10;100614.38;;;7.36;100.00
46023;BME280;31756;47.936;16.224;2023-02-12T15:20:39;100611.94;;;7.41;100.00
46023;BME280;31756;47.936;16.224;2023-02-12T15:25:53;100612.69;;;7.37;100.00
46023;BME280;31756;47.936;16.224;2023-02-12T15:28:20;100610.84;;;7.31;100.00
46023;BME280;31756;47.936;16.224;2023-02-12T15:30:48;100609.09;;;7.28;100.00